Time;durP1;ratioP1;P1;durP2;ratioP2;P2;SDS_P1;SDS_P2;PMS_P1;PMS_P2;Temp;Humidity;BMP_temperature;BMP_pressure;BME280_temperature;BME280_humidity;BME280_pressure;Samples;Min_cycle;Max_cycle;Signal;HPM_P1;HPM_P2
2022/06/05 00:01:35;;;;;;;1.87;1.77;;;25.40;61.20;;;;;;5137191;27;20468;-80
2022/06/05 00:04:12;;;;;;;2.00;1.90;;;25.40;61.10;;;;;;5137475;27;20440;-79
2022/06/05 00:06:45;;;;;;;1.60;1.50;;;25.40;61.20;;;;;;5137469;27;20521;-79
2022/06/05 00:09:25;;;;;;;1.87;1.77;;;25.40;61.20;;;;;;5137261;27;20517;-78
2022/06/05 00:12:03;;;;;;;1.63;1.53;;;25.40;61.10;;;;;;5137353;27;20438;-78
2022/06/05 00:14:30;;;;;;;1.80;1.70;;;25.40;61.20;;;;;;5137422;27;20462;-78
2022/06/05 00:16:59;;;;;;;2.07;1.87;;;25.40;61.20;;;;;;5137480;27;20441;-78
2022/06/05 00:19:26;;;;;;;1.80;1.70;;;25.40;61.20;;;;;;5137226;27;20438;-78
2022/06/05 00:21:53;;;;;;;1.80;1.70;;;25.40;61.20;;;;;;5137221;27;20445;-78
2022/06/05 00:24:20;;;;;;;2.20;2.10;;;25.40;61.20;;;;;;5136978;27;20469;-79
2022/06/05 00:27:01;;;;;;;1.97;1.87;;;25.40;61.20;;;;;;5137177;27;20438;-78
2022/06/05 00:29:51;;;;;;;1.63;1.53;;;25.50;61.30;;;;;;5136813;27;20885;-82
2022/06/05 00:32:27;;;;;;;1.80;1.70;;;25.40;61.20;;;;;;5136584;27;20517;-78
2022/06/05 00:34:54;;;;;;;1.50;1.40;;;25.40;61.20;;;;;;5136814;27;20525;-78
2022/06/05 00:37:32;;;;;;;2.20;2.10;;;25.40;61.20;;;;;;5136742;27;20537;-78
2022/06/05 00:40:15;;;;;;;1.77;1.67;;;25.40;61.20;;;;;;5136678;27;20533;-77
2022/06/05 00:42:42;;;;;;;2.10;2.00;;;25.40;61.20;;;;;;5136903;27;20534;-78
2022/06/05 00:45:12;;;;;;;1.77;1.67;;;25.40;61.20;;;;;;5136536;27;20580;-78
2022/06/05 00:47:42;;;;;;;1.80;1.70;;;25.40;61.20;;;;;;5136812;27;20856;-78
2022/06/05 00:50:15;;;;;;;1.80;1.70;;;25.40;61.20;;;;;;5136706;27;20943;-78
2022/06/05 00:52:46;;;;;;;2.00;1.90;;;25.40;61.10;;;;;;5136779;27;20438;-79
2022/06/05 00:55:14;;;;;;;1.83;1.73;;;25.40;61.20;;;;;;5136864;27;20534;-79
2022/06/05 00:57:41;;;;;;;1.70;1.60;;;25.40;61.20;;;;;;5136513;27;20438;-84
2022/06/05 01:00:12;;;;;;;1.53;1.43;;;25.40;61.20;;;;;;5136290;27;20550;-80
2022/06/05 01:02:43;;;;;;;1.80;1.70;;;25.40;61.20;;;;;;5136474;27;20438;-78
2022/06/05 01:05:12;;;;;;;1.77;1.67;;;25.40;61.20;;;;;;5136508;27;20441;-79
2022/06/05 01:07:39;;;;;;;1.70;1.60;;;25.40;61.20;;;;;;5136223;27;20521;-79
2022/06/05 01:10:09;;;;;;;1.70;1.60;;;25.40;61.20;;;;;;5136372;27;20440;-79
2022/06/05 01:12:45;;;;;;;2.33;2.13;;;25.40;61.20;;;;;;5136292;27;21034;-79
2022/06/05 01:15:21;;;;;;;2.00;1.90;;;25.40;61.10;;;;;;5136445;27;20512;-79
2022/06/05 01:17:56;;;;;;;1.50;1.40;;;25.40;61.20;;;;;;5136383;27;20529;-79
2022/06/05 01:20:35;;;;;;;1.67;1.57;;;25.40;61.20;;;;;;5136237;27;20429;-80
2022/06/05 01:23:23;;;;;;;1.80;1.70;;;25.40;61.20;;;;;;5136124;27;20526;-84
2022/06/05 01:26:05;;;;;;;1.40;1.30;;;25.40;61.20;;;;;;5136293;27;20473;-80
2022/06/05 01:28:34;;;;;;;1.90;1.80;;;25.40;61.10;;;;;;5135744;27;20473;-77
2022/06/05 01:31:08;;;;;;;1.83;1.73;;;25.40;61.20;;;;;;5135704;27;20455;-77
2022/06/05 01:33:45;;;;;;;1.57;1.47;;;25.40;61.20;;;;;;5135965;27;20448;-78
2022/06/05 01:36:17;;;;;;;1.67;1.57;;;25.40;61.20;;;;;;5135898;27;20529;-78
2022/06/05 01:38:49;;;;;;;1.53;1.43;;;25.40;61.20;;;;;;5135382;27;20465;-79
2022/06/05 01:41:23;;;;;;;1.77;1.67;;;25.40;61.20;;;;;;5135528;27;20525;-79
2022/06/05 01:43:54;;;;;;;1.90;1.80;;;25.40;61.20;;;;;;5135613;27;20920;-79
2022/06/05 01:46:26;;;;;;;2.00;1.90;;;25.40;61.20;;;;;;5135582;27;20493;-79
2022/06/05 01:48:57;;;;;;;2.03;1.93;;;25.40;61.30;;;;;;5135541;27;20899;-79
2022/06/05 01:51:29;;;;;;;1.73;1.63;;;25.40;61.20;;;;;;5135438;27;20462;-79
2022/06/05 01:53:57;;;;;;;1.63;1.53;;;25.40;61.20;;;;;;5135482;27;20435;-78
2022/06/05 01:56:31;;;;;;;1.80;1.70;;;25.40;61.20;;;;;;5135418;27;20517;-78
2022/06/05 01:59:14;;;;;;;1.53;1.43;;;25.40;61.20;;;;;;5135425;27;20438;-80
2022/06/05 02:01:48;;;;;;;1.67;1.57;;;25.40;61.20;;;;;;5135397;27;20525;-79
2022/06/05 02:04:19;;;;;;;2.03;1.40;;;25.40;61.20;;;;;;5135240;27;20525;-78
2022/06/05 02:06:53;;;;;;;1.83;1.73;;;25.40;61.20;;;;;;5135066;27;20529;-79
2022/06/05 02:09:25;;;;;;;1.50;1.40;;;25.40;61.20;;;;;;5134994;27;20481;-78
2022/06/05 02:11:53;;;;;;;1.90;1.80;;;25.40;61.20;;;;;;5135077;27;21132;-79
2022/06/05 02:14:20;;;;;;;1.80;1.70;;;25.40;61.10;;;;;;5134696;27;20473;-79
2022/06/05 02:16:47;;;;;;;1.60;1.50;;;25.40;61.10;;;;;;5135043;27;20534;-79
2022/06/05 02:19:17;;;;;;;1.77;1.67;;;25.40;61.10;;;;;;5135009;27;20438;-79
2022/06/05 02:21:44;;;;;;;2.00;1.90;;;25.40;61.90;;;;;;5135250;27;20993;-78
2022/06/05 02:24:13;;;;;;;1.77;1.67;;;25.40;61.20;;;;;;5134740;27;20470;-78
2022/06/05 02:26:41;;;;;;;1.80;1.70;;;25.40;61.10;;;;;;5134486;27;20513;-82
2022/06/05 02:29:13;;;;;;;1.90;1.80;;;25.40;61.10;;;;;;5134513;27;20477;-78
2022/06/05 02:31:53;;;;;;;1.80;1.70;;;25.40;61.10;;;;;;5134600;27;20442;-78
2022/06/05 02:34:31;;;;;;;1.70;1.60;;;25.40;61.10;;;;;;5134450;27;20430;-78
2022/06/05 02:37:04;;;;;;;1.57;1.47;;;25.40;61.10;;;;;;5134962;27;20434;-78
2022/06/05 02:39:39;;;;;;;1.87;1.77;;;25.40;61.10;;;;;;5134455;27;20465;-78
2022/06/05 02:42:15;;;;;;;2.00;1.90;;;25.40;61.10;;;;;;5134461;27;20485;-79
2022/06/05 02:44:54;;;;;;;1.70;1.60;;;25.40;61.10;;;;;;5134738;27;20438;-78
2022/06/05 02:47:31;;;;;;;2.17;2.07;;;25.40;61.00;;;;;;5134177;27;20548;-79
2022/06/05 02:50:04;;;;;;;1.67;1.57;;;25.40;61.10;;;;;;5134319;27;20482;-79
2022/06/05 02:52:32;;;;;;;1.60;1.50;;;25.40;61.10;;;;;;5133614;27;20529;-79
2022/06/05 02:55:04;;;;;;;1.63;1.53;;;25.30;61.00;;;;;;5134304;27;21017;-79
2022/06/05 02:57:31;;;;;;;1.73;1.63;;;25.40;61.00;;;;;;5134282;27;20820;-79
2022/06/05 03:00:00;;;;;;;1.90;1.80;;;25.30;61.00;;;;;;5134296;27;20541;-80
2022/06/05 03:05:11;;;;;;;1.77;1.67;;;25.30;61.00;;;;;;5134311;28;20421;-79
2022/06/05 03:07:38;;;;;;;1.50;1.40;;;25.40;61.00;;;;;;5134014;28;20845;-79
2022/06/05 03:10:06;;;;;;;1.83;1.67;;;25.40;61.90;;;;;;5134233;28;20630;-79
2022/06/05 03:12:32;;;;;;;1.97;1.70;;;25.30;61.00;;;;;;5134215;28;20510;-83
2022/06/05 03:15:02;;;;;;;1.60;1.50;;;25.40;61.10;;;;;;5134548;28;20430;-83
2022/06/05 03:17:29;;;;;;;1.30;1.20;;;25.40;61.00;;;;;;5134429;28;20953;-82
2022/06/05 03:19:57;;;;;;;2.00;1.80;;;25.30;61.00;;;;;;5133871;28;20931;-79
2022/06/05 03:22:25;;;;;;;1.50;1.40;;;25.40;61.00;;;;;;5134091;28;20434;-79
2022/06/05 03:24:52;;;;;;;1.70;1.60;;;25.40;61.00;;;;;;5134206;28;20438;-82
2022/06/05 03:27:20;;;;;;;1.67;1.57;;;25.40;61.00;;;;;;5134130;28;20529;-79
2022/06/05 03:29:47;;;;;;;1.60;1.50;;;25.40;61.10;;;;;;5134216;28;20490;-79
2022/06/05 03:32:15;;;;;;;1.90;1.80;;;25.40;61.00;;;;;;5133994;28;20788;-79
2022/06/05 03:34:42;;;;;;;1.63;1.53;;;25.30;60.90;;;;;;5133890;28;21012;-79
2022/06/05 03:37:09;;;;;;;1.80;1.50;;;25.40;60.90;;;;;;5134022;28;20858;-79
2022/06/05 03:39:36;;;;;;;1.60;1.50;;;25.30;61.00;;;;;;5133927;28;20472;-79
2022/06/05 03:42:03;;;;;;;1.50;1.40;;;25.30;60.90;;;;;;5134242;28;20442;-80
2022/06/05 03:44:30;;;;;;;1.70;1.60;;;25.30;61.00;;;;;;5133774;28;20513;-83
2022/06/05 03:46:57;;;;;;;1.57;1.47;;;25.30;60.90;;;;;;5134036;28;20521;-79
2022/06/05 03:49:25;;;;;;;1.67;1.57;;;25.30;61.00;;;;;;5133810;28;20984;-79
2022/06/05 03:51:52;;;;;;;1.57;1.47;;;25.40;61.00;;;;;;5133927;28;20610;-83
2022/06/05 03:54:20;;;;;;;1.83;1.73;;;25.30;60.90;;;;;;5133805;28;20444;-79
2022/06/05 03:56:47;;;;;;;1.77;1.67;;;25.30;61.80;;;;;;5133721;28;20441;-80
2022/06/05 03:59:13;;;;;;;1.57;1.47;;;25.30;60.90;;;;;;5133821;28;20560;-84
2022/06/05 04:01:40;;;;;;;1.90;1.80;;;25.30;60.90;;;;;;5133741;27;20892;-79
2022/06/05 04:04:07;;;;;;;1.60;1.50;;;25.30;60.90;;;;;;5137029;27;20446;-80
2022/06/05 04:06:35;;;;;;;1.60;1.50;;;25.30;60.90;;;;;;5137336;27;20457;-82
2022/06/05 04:09:06;;;;;;;1.67;1.57;;;25.30;60.90;;;;;;5137475;27;20807;-83
2022/06/05 04:11:35;;;;;;;1.50;1.40;;;25.30;60.90;;;;;;5137442;27;20789;-82
2022/06/05 04:14:03;;;;;;;1.57;1.47;;;25.30;60.80;;;;;;5137197;27;20506;-83
2022/06/05 04:16:31;;;;;;;1.67;1.57;;;25.30;60.80;;;;;;5137268;27;20430;-83
2022/06/05 04:19:00;;;;;;;1.43;1.33;;;25.30;60.90;;;;;;5137609;27;20436;-83
2022/06/05 04:21:29;;;;;;;1.63;1.53;;;25.30;60.80;;;;;;5137319;27;20491;-79
2022/06/05 04:23:59;;;;;;;1.90;1.80;;;25.30;60.80;;;;;;5137101;27;20513;-78
2022/06/05 04:26:32;;;;;;;1.60;1.50;;;25.30;60.90;;;;;;5136969;27;20481;-79
2022/06/05 04:28:59;;;;;;;1.40;1.30;;;25.30;60.90;;;;;;5136831;27;20473;-82
2022/06/05 04:31:28;;;;;;;1.70;1.60;;;25.30;60.80;;;;;;5136767;27;20469;-79
2022/06/05 04:33:58;;;;;;;1.70;1.60;;;25.30;60.90;;;;;;5136909;27;20438;-78
2022/06/05 04:36:25;;;;;;;1.73;1.63;;;25.30;60.90;;;;;;5136903;27;20601;-79
2022/06/05 04:38:53;;;;;;;1.73;1.63;;;25.30;60.80;;;;;;5137201;27;20444;-83
2022/06/05 04:41:22;;;;;;;1.50;1.40;;;25.30;60.80;;;;;;5136765;27;20533;-78
2022/06/05 04:43:50;;;;;;;1.60;1.50;;;25.30;60.90;;;;;;5136734;27;20521;-79
2022/06/05 04:46:18;;;;;;;1.93;1.83;;;25.30;60.90;;;;;;5136833;27;20482;-83
2022/06/05 04:48:45;;;;;;;1.63;1.53;;;25.30;60.80;;;;;;5136701;27;20449;-79
2022/06/05 04:51:13;;;;;;;1.80;1.70;;;25.30;60.80;;;;;;5136500;27;20529;-79
2022/06/05 04:53:41;;;;;;;1.57;1.47;;;25.30;60.80;;;;;;5136628;27;20441;-79
2022/06/05 04:56:10;;;;;;;1.43;1.33;;;25.30;60.80;;;;;;5136612;27;20462;-79
2022/06/05 04:58:38;;;;;;;1.90;1.80;;;25.30;60.80;;;;;;5136467;27;20434;-79
2022/06/05 05:01:11;;;;;;;1.57;1.47;;;25.30;60.80;;;;;;5136506;27;21026;-84
2022/06/05 05:03:38;;;;;;;1.60;1.50;;;25.30;60.80;;;;;;5136521;27;20529;-80
2022/06/05 05:06:05;;;;;;;1.60;1.50;;;25.30;61.70;;;;;;5136321;27;20925;-83
2022/06/05 05:08:32;;;;;;;1.50;1.40;;;25.30;60.80;;;;;;5136173;27;20434;-80
2022/06/05 05:10:59;;;;;;;1.97;1.87;;;25.30;60.80;;;;;;5136160;27;20482;-81
2022/06/05 05:13:26;;;;;;;1.90;1.80;;;25.30;61.00;;;;;;5135572;27;20976;-78
2022/06/05 05:15:56;;;;;;;1.60;1.50;;;25.30;60.80;;;;;;5136121;27;20521;-78
2022/06/05 05:18:24;;;;;;;1.70;1.60;;;25.30;60.80;;;;;;5136279;27;20509;-83
2022/06/05 05:20:51;;;;;;;1.40;1.30;;;25.30;60.80;;;;;;5136047;27;20993;-78
2022/06/05 05:23:19;;;;;;;1.53;1.43;;;25.30;60.80;;;;;;5135935;27;20473;-78
2022/06/05 05:25:47;;;;;;;1.40;1.30;;;25.30;60.80;;;;;;5135963;27;20438;-79
2022/06/05 05:28:14;;;;;;;1.63;1.53;;;25.30;60.80;;;;;;5135904;27;20442;-78
2022/06/05 05:30:45;;;;;;;1.77;1.67;;;25.30;61.70;;;;;;5135931;27;20528;-79
2022/06/05 05:33:14;;;;;;;1.77;1.67;;;25.30;60.80;;;;;;5135813;27;20512;-79
2022/06/05 05:35:41;;;;;;;1.47;1.37;;;25.30;60.80;;;;;;5117285;27;20984;-79
2022/06/05 05:38:09;;;;;;;1.80;1.70;;;25.30;60.80;;;;;;5135719;27;20488;-79
2022/06/05 05:43:20;;;;;;;1.83;1.73;;;25.30;60.80;;;;;;5135869;27;20445;-79
2022/06/05 05:45:49;;;;;;;1.57;1.47;;;25.30;60.90;;;;;;5135184;27;20438;-79
2022/06/05 05:48:17;;;;;;;1.77;1.67;;;25.20;61.60;;;;;;5135659;27;20832;-79
2022/06/05 05:50:45;;;;;;;1.60;1.50;;;25.30;60.80;;;;;;5135518;27;20572;-79
2022/06/05 05:53:12;;;;;;;1.60;1.50;;;25.30;60.80;;;;;;5135314;27;20445;-79
2022/06/05 05:55:39;;;;;;;1.67;1.57;;;25.30;60.80;;;;;;5135243;27;20440;-79
2022/06/05 05:58:06;;;;;;;1.60;1.50;;;25.30;60.80;;;;;;5135776;27;20501;-79
2022/06/05 06:00:33;;;;;;;1.77;1.67;;;25.30;60.80;;;;;;5135257;27;20536;-82
2022/06/05 06:03:00;;;;;;;1.60;1.50;;;25.30;60.80;;;;;;5135352;27;20474;-82
2022/06/05 06:05:28;;;;;;;1.60;1.50;;;25.30;60.80;;;;;;5135118;27;20555;-79
2022/06/05 06:07:55;;;;;;;1.77;1.67;;;25.30;60.70;;;;;;5135148;27;20474;-79
2022/06/05 06:10:22;;;;;;;1.60;1.50;;;25.30;60.80;;;;;;5135112;27;20568;-83
2022/06/05 06:12:48;;;;;;;1.40;1.30;;;25.30;60.70;;;;;;5134632;27;20470;-79
2022/06/05 06:15:15;;;;;;;1.80;1.70;;;25.30;60.80;;;;;;5134948;27;20947;-83
2022/06/05 06:17:42;;;;;;;1.67;1.57;;;25.30;60.80;;;;;;5135018;27;20430;-79
2022/06/05 06:20:12;;;;;;;1.60;1.50;;;25.30;60.70;;;;;;5134961;27;20861;-83
2022/06/05 06:22:41;;;;;;;1.60;1.50;;;25.30;60.70;;;;;;5134977;27;20516;-79
2022/06/05 06:25:09;;;;;;;1.53;1.43;;;25.30;60.70;;;;;;5134789;27;20437;-83
2022/06/05 06:27:36;;;;;;;1.60;1.50;;;25.30;60.70;;;;;;5134823;27;20533;-79
2022/06/05 06:30:03;;;;;;;1.70;1.60;;;25.30;60.70;;;;;;5134598;27;20569;-83
2022/06/05 06:32:30;;;;;;;1.63;1.53;;;25.30;60.70;;;;;;5135009;27;20943;-83
2022/06/05 06:34:57;;;;;;;1.90;1.80;;;25.30;60.70;;;;;;5134821;27;20533;-79
2022/06/05 06:37:24;;;;;;;1.70;1.60;;;25.30;60.70;;;;;;5134748;27;20465;-79
2022/06/05 06:39:52;;;;;;;1.47;1.37;;;25.30;60.70;;;;;;5134609;27;20529;-83
2022/06/05 06:42:19;;;;;;;1.53;1.43;;;25.30;60.70;;;;;;5134468;27;20438;-80
2022/06/05 06:44:46;;;;;;;1.50;1.40;;;25.30;60.70;;;;;;5134970;27;20466;-80
2022/06/05 06:47:12;;;;;;;1.80;1.70;;;25.30;60.70;;;;;;5134619;27;20466;-80
2022/06/05 06:49:39;;;;;;;1.93;1.83;;;25.30;60.70;;;;;;5134514;27;20473;-80
2022/06/05 06:52:07;;;;;;;1.70;1.60;;;25.30;60.70;;;;;;5134352;27;20470;-84
2022/06/05 06:54:34;;;;;;;1.70;1.60;;;25.30;60.70;;;;;;5134692;27;20526;-81
2022/06/05 06:57:02;;;;;;;1.43;1.33;;;25.30;60.70;;;;;;5134580;27;20525;-79
2022/06/05 06:59:29;;;;;;;1.70;1.60;;;25.30;60.70;;;;;;5134330;27;20458;-82
2022/06/05 07:01:56;;;;;;;1.60;1.50;;;25.30;60.70;;;;;;5134178;27;20448;-85
2022/06/05 07:04:23;;;;;;;1.50;1.40;;;25.30;61.60;;;;;;5133463;28;20477;-81
2022/06/05 07:06:51;;;;;;;2.33;2.20;;;25.30;60.80;;;;;;5134122;28;20474;-82
2022/06/05 07:09:18;;;;;;;3.60;3.30;;;25.30;61.60;;;;;;5122387;28;20523;-79
2022/06/05 07:11:45;;;;;;;4.23;3.93;;;25.20;63.30;;;;;;5133476;27;20583;-77
2022/06/05 07:14:16;;;;;;;7.00;3.97;;;25.10;64.80;;;;;;5129356;27;20507;-80
2022/06/05 07:16:43;;;;;;;4.10;3.90;;;25.10;65.30;;;;;;5126085;28;20778;-79
2022/06/05 07:19:10;;;;;;;4.30;3.33;;;25.00;65.60;;;;;;5113825;28;20475;-85
2022/06/05 07:21:37;;;;;;;3.37;2.87;;;25.00;66.20;;;;;;5113629;28;20443;-81
2022/06/05 07:24:04;;;;;;;4.27;3.97;;;24.90;66.60;;;;;;5114691;28;20537;-87
2022/06/05 07:26:33;;;;;;;4.40;4.03;;;24.80;66.80;;;;;;5121529;28;20527;-80
2022/06/05 07:29:00;;;;;;;6.80;4.70;;;24.80;67.10;;;;;;5129060;28;20490;-81
2022/06/05 07:31:30;;;;;;;4.47;4.13;;;24.70;67.40;;;;;;5113250;28;20573;-80
2022/06/05 07:33:57;;;;;;;4.43;4.13;;;24.70;67.60;;;;;;5113124;28;20446;-81
2022/06/05 07:36:26;;;;;;;4.43;4.13;;;24.70;67.60;;;;;;5113472;28;20993;-81
2022/06/05 07:38:53;;;;;;;5.77;4.53;;;24.80;68.40;;;;;;5116427;28;20439;-81
2022/06/05 07:41:23;;;;;;;5.10;4.70;;;24.70;68.10;;;;;;5117182;28;20445;-80
2022/06/05 07:43:50;;;;;;;4.87;4.57;;;24.70;68.40;;;;;;5117356;28;20450;-80
2022/06/05 07:46:17;;;;;;;5.10;4.80;;;24.60;68.40;;;;;;5117662;28;20665;-81
2022/06/05 07:48:46;;;;;;;5.83;4.77;;;24.60;68.70;;;;;;5117335;28;20522;-80
2022/06/05 07:56:44;;;;;;;5.27;4.77;;;24.60;69.30;;;;;;5117544;28;20777;-80
2022/06/05 07:59:11;;;;;;;4.87;4.57;;;24.50;69.60;;;;;;5116988;28;20455;-81
2022/06/05 08:01:38;;;;;;;5.00;4.60;;;24.50;69.60;;;;;;5116934;28;20541;-81
2022/06/05 08:04:07;;;;;;;4.87;4.47;;;24.60;69.90;;;;;;5116390;28;20534;-84
2022/06/05 08:06:34;;;;;;;4.70;4.40;;;24.70;69.80;;;;;;5137878;27;20539;-85
2022/06/05 08:09:01;;;;;;;4.63;4.33;;;24.70;69.80;;;;;;5137378;27;20434;-86
2022/06/05 08:11:28;;;;;;;6.57;5.87;;;24.70;70.20;;;;;;5137853;27;20492;-80
2022/06/05 08:13:55;;;;;;;7.47;5.10;;;24.70;70.30;;;;;;5137417;27;20497;-85
2022/06/05 08:16:22;;;;;;;4.90;4.50;;;24.80;70.10;;;;;;5137533;27;20524;-86
2022/06/05 08:18:51;;;;;;;6.03;5.40;;;24.80;70.40;;;;;;5137472;27;20466;-80
2022/06/05 08:21:19;;;;;;;4.00;3.80;;;24.80;70.40;;;;;;5137027;27;20469;-80
2022/06/05 08:23:46;;;;;;;5.60;4.50;;;24.90;70.60;;;;;;5137265;27;20434;-80
2022/06/05 08:26:13;;;;;;;4.47;4.17;;;24.90;70.80;;;;;;5137352;27;20523;-88
2022/06/05 08:28:40;;;;;;;4.67;4.23;;;25.00;70.40;;;;;;5136948;27;20544;-78
2022/06/05 08:31:07;;;;;;;4.70;4.37;;;25.10;69.70;;;;;;5137002;27;20481;-80
2022/06/05 08:33:35;;;;;;;4.67;4.40;;;25.10;69.00;;;;;;5137311;27;21011;-85
2022/06/05 08:36:02;;;;;;;3.73;3.53;;;25.10;67.80;;;;;;5137210;27;20529;-88
2022/06/05 08:41:31;;;;;;;4.50;4.10;;;25.20;68.00;;;;;;5137234;27;21001;-87
2022/06/05 08:44:05;;;;;;;4.40;4.10;;;25.20;68.10;;;;;;5136725;27;20453;-81
2022/06/05 08:46:37;;;;;;;8.47;4.20;;;25.30;68.00;;;;;;5136981;27;20461;-84
2022/06/05 08:49:09;;;;;;;9.93;4.77;;;25.30;67.50;;;;;;5136970;27;20438;-89
2022/06/05 08:51:46;;;;;;;26.87;6.50;;;25.30;67.40;;;;;;5136781;27;21047;-81
2022/06/05 08:54:20;;;;;;;14.00;7.03;;;25.40;67.40;;;;;;5136897;27;20526;-81
2022/06/05 08:56:50;;;;;;;32.10;6.83;;;25.40;67.40;;;;;;5136750;27;20434;-88
2022/06/05 08:59:24;;;;;;;40.77;7.10;;;25.40;67.40;;;;;;5136359;27;20538;-82
2022/06/05 09:01:58;;;;;;;42.47;5.80;;;25.40;67.40;;;;;;5136529;27;20474;-81
2022/06/05 09:04:38;;;;;;;28.33;7.27;;;25.50;67.30;;;;;;5136599;27;20921;-81
2022/06/05 09:07:10;;;;;;;87.27;12.00;;;25.50;67.00;;;;;;5136436;27;20442;-88
2022/06/05 09:09:44;;;;;;;26.70;6.47;;;25.50;67.70;;;;;;5136618;27;20438;-81
2022/06/05 09:12:15;;;;;;;84.00;12.17;;;25.50;67.50;;;;;;5135916;27;20481;-85
2022/06/05 09:14:50;;;;;;;76.63;11.23;;;25.50;67.40;;;;;;5136168;27;20529;-87
2022/06/05 09:17:20;;;;;;;50.17;9.10;;;25.50;67.50;;;;;;5136117;27;20446;-81
2022/06/05 09:19:48;;;;;;;37.63;7.03;;;25.50;67.00;;;;;;5136433;27;20909;-90
2022/06/05 09:22:18;;;;;;;35.07;7.83;;;25.50;66.70;;;;;;5136229;27;20446;-82
2022/06/05 09:25:19;;;;;;;41.13;6.90;;;25.50;67.00;;;;;;5136323;27;20438;-82
2022/06/05 09:28:01;;;;;;;18.83;5.67;;;25.50;66.90;;;;;;5127583;27;20533;-82
2022/06/05 09:30:32;;;;;;;11.23;5.70;;;25.50;66.70;;;;;;5135879;27;20524;-87
2022/06/05 09:33:15;;;;;;;29.07;5.80;;;25.50;67.70;;;;;;5136780;27;20529;-89
2022/06/05 09:35:48;;;;;;;14.00;5.90;;;25.50;66.70;;;;;;5136333;27;20434;-89
2022/06/05 09:38:22;;;;;;;11.27;4.80;;;25.50;67.00;;;;;;5135867;27;20533;-89
2022/06/05 09:41:03;;;;;;;20.37;5.00;;;25.50;67.00;;;;;;5136041;27;20541;-82
2022/06/05 09:43:50;;;;;;;8.93;4.27;;;25.50;67.30;;;;;;5123350;27;20446;-89
2022/06/05 09:46:37;;;;;;;10.30;4.50;;;25.50;67.50;;;;;;5114938;28;20437;-86
2022/06/05 09:49:13;;;;;;;4.70;4.30;;;25.50;67.10;;;;;;5115234;28;20530;-84
2022/06/05 09:51:43;;;;;;;7.70;3.97;;;25.50;67.30;;;;;;5114551;28;20488;-83
2022/06/05 09:54:19;;;;;;;6.37;4.03;;;25.50;67.40;;;;;;5115085;28;20534;-83
2022/06/05 09:59:54;;;;;;;4.70;4.30;;;25.50;67.10;;;;;;5122847;27;20480;-81
2022/06/05 10:02:23;;;;;;;5.50;4.30;;;25.50;67.40;;;;;;5135541;27;20485;-80
2022/06/05 10:04:50;;;;;;;9.03;5.23;;;25.50;67.50;;;;;;5134947;27;20442;-80
2022/06/05 10:07:24;;;;;;;4.50;3.93;;;25.50;67.10;;;;;;5135403;27;20446;-81
2022/06/05 10:09:51;;;;;;;4.63;4.23;;;25.50;67.40;;;;;;5135172;27;20522;-83
2022/06/05 10:12:25;;;;;;;5.80;4.40;;;25.50;68.30;;;;;;5134743;27;20855;-81
2022/06/05 10:14:58;;;;;;;5.40;4.67;;;25.50;67.30;;;;;;5135203;27;20434;-81
2022/06/05 10:17:50;;;;;;;5.00;4.30;;;25.50;68.60;;;;;;5134649;27;20525;-81
2022/06/05 10:20:40;;;;;;;4.70;4.27;;;25.50;68.00;;;;;;5134441;27;20433;-79
2022/06/05 10:23:37;;;;;;;5.37;4.97;;;25.50;68.10;;;;;;5113772;28;20443;-81
2022/06/05 10:26:17;;;;;;;8.03;5.23;;;25.50;68.60;;;;;;5129889;27;20936;-83
2022/06/05 10:28:46;;;;;;;5.40;4.87;;;25.50;69.20;;;;;;5103012;27;20473;-82
2022/06/05 10:31:24;;;;;;;4.97;4.67;;;25.50;69.10;;;;;;5125941;27;20486;-83
2022/06/05 10:33:58;;;;;;;5.20;4.90;;;25.50;69.20;;;;;;5113948;28;20534;-84
2022/06/05 10:36:34;;;;;;;4.23;3.93;;;25.50;69.70;;;;;;5116920;27;20933;-80
2022/06/05 10:39:08;;;;;;;4.63;4.30;;;25.50;69.50;;;;;;5134687;27;20438;-81
2022/06/05 10:41:39;;;;;;;4.60;4.30;;;25.50;69.40;;;;;;5133979;27;20544;-83
2022/06/05 10:44:18;;;;;;;5.03;3.70;;;25.50;69.20;;;;;;5130187;27;20504;-82
2022/06/05 10:47:01;;;;;;;4.20;3.57;;;25.50;68.80;;;;;;5150466;27;20812;-82
2022/06/05 10:49:33;;;;;;;4.30;3.90;;;25.50;68.40;;;;;;5134679;27;20945;-84
2022/06/05 10:52:13;;;;;;;4.20;4.00;;;25.50;68.40;;;;;;5132952;27;20481;-88
2022/06/05 10:54:55;;;;;;;3.87;3.67;;;25.50;68.10;;;;;;5128555;27;20861;-84
2022/06/05 10:57:27;;;;;;;3.93;3.50;;;25.50;67.90;;;;;;5114325;28;20446;-82
2022/06/05 11:00:01;;;;;;;4.50;3.90;;;25.50;68.00;;;;;;5116497;28;20558;-87
2022/06/05 11:02:47;;;;;;;5.23;3.83;;;25.50;68.80;;;;;;5122942;28;20478;-81
2022/06/05 11:05:42;;;;;;;4.03;3.73;;;25.50;68.10;;;;;;5129791;28;20454;-83
2022/06/05 11:08:16;;;;;;;5.10;3.50;;;25.50;68.50;;;;;;5119423;28;20435;-86
2022/06/05 11:13:52;;;;;;;3.77;3.47;;;25.50;68.20;;;;;;5116529;28;20454;-82
2022/06/05 11:16:30;;;;;;;4.80;3.30;;;25.50;68.20;;;;;;5123139;27;20522;-81
2022/06/05 11:19:15;;;;;;;3.70;3.30;;;25.50;68.50;;;;;;5138467;27;20529;-84
2022/06/05 11:21:44;;;;;;;3.53;3.23;;;25.50;67.80;;;;;;5137900;27;21028;-87
2022/06/05 11:24:22;;;;;;;3.73;3.30;;;25.50;68.00;;;;;;5137039;27;21019;-88
2022/06/05 11:26:58;;;;;;;3.90;3.50;;;25.50;67.90;;;;;;5137581;27;20480;-84
2022/06/05 11:29:33;;;;;;;4.60;3.73;;;25.50;67.90;;;;;;5126101;27;20545;-84
2022/06/05 11:32:20;;;;;;;2.87;2.67;;;25.50;67.80;;;;;;5126194;27;20573;-82
2022/06/05 11:34:55;;;;;;;4.07;3.77;;;25.50;67.50;;;;;;5102207;28;20556;-88
2022/06/05 11:37:37;;;;;;;3.20;3.00;;;25.50;67.80;;;;;;5110605;27;20433;-83
2022/06/05 11:40:18;;;;;;;3.77;3.57;;;25.50;67.60;;;;;;5137694;27;20437;-83
2022/06/05 11:42:51;;;;;;;3.57;3.37;;;25.50;67.70;;;;;;5117875;28;20474;-88
2022/06/05 11:45:41;;;;;;;3.23;3.03;;;25.50;67.80;;;;;;5117505;28;20510;-88
2022/06/05 11:48:17;;;;;;;4.00;3.53;;;25.50;67.70;;;;;;5083729;28;20443;-84
2022/06/05 11:50:50;;;;;;;5.10;4.00;;;25.50;67.60;;;;;;5111298;27;20803;-87
2022/06/05 11:53:22;;;;;;;2.97;2.87;;;25.50;67.50;;;;;;5116995;28;21010;-84
2022/06/05 11:55:56;;;;;;;3.43;3.23;;;25.50;67.40;;;;;;5117524;28;20860;-83
2022/06/05 11:58:29;;;;;;;5.87;3.73;;;25.50;67.20;;;;;;5117114;28;20466;-84
2022/06/05 12:01:00;;;;;;;5.20;3.40;;;25.50;67.50;;;;;;5117533;28;20470;-84
2022/06/05 12:03:34;;;;;;;9.17;4.00;;;25.50;67.70;;;;;;5117152;28;20530;-83
2022/06/05 12:06:09;;;;;;;3.30;3.07;;;25.50;68.30;;;;;;5116989;28;20445;-81
2022/06/05 12:08:39;;;;;;;3.33;3.03;;;25.50;68.30;;;;;;5116546;28;20442;-82
2022/06/05 12:11:12;;;;;;;3.70;3.40;;;25.50;68.00;;;;;;5116178;28;20518;-82
2022/06/05 12:13:54;;;;;;;6.80;3.30;;;25.50;67.90;;;;;;5114862;28;21111;-83
2022/06/05 12:16:28;;;;;;;6.20;3.13;;;25.50;68.20;;;;;;5114987;27;20446;-81
2022/06/05 12:19:04;;;;;;;6.73;3.33;;;25.50;68.40;;;;;;5122723;27;20466;-82
2022/06/05 12:21:39;;;;;;;3.27;3.07;;;25.50;68.50;;;;;;5136243;27;20552;-82
2022/06/05 12:24:13;;;;;;;3.23;3.03;;;25.50;68.50;;;;;;5117868;27;20452;-83
2022/06/05 12:26:46;;;;;;;4.10;3.53;;;25.50;69.30;;;;;;5137618;27;20438;-84
2022/06/05 12:29:19;;;;;;;3.80;2.83;;;25.50;68.60;;;;;;5137271;27;20541;-83
2022/06/05 12:31:50;;;;;;;3.70;3.00;;;25.50;68.50;;;;;;5137230;27;20468;-82
2022/06/05 12:34:21;;;;;;;4.33;3.43;;;25.50;68.50;;;;;;5136847;27;20532;-82
2022/06/05 12:36:56;;;;;;;6.10;3.10;;;25.60;68.40;;;;;;5136877;27;20521;-86
2022/06/05 12:39:27;;;;;;;6.30;3.83;;;25.60;68.20;;;;;;5135838;27;20533;-86
2022/06/05 12:42:08;;;;;;;3.57;2.80;;;25.60;68.60;;;;;;5137078;27;20874;-85
2022/06/05 12:44:41;;;;;;;4.70;3.10;;;25.60;68.40;;;;;;5136516;27;20933;-81
2022/06/05 12:47:18;;;;;;;5.17;3.30;;;25.60;68.50;;;;;;5135778;27;20481;-81
2022/06/05 12:50:14;;;;;;;4.37;3.20;;;25.60;69.00;;;;;;5135387;27;20524;-80
2022/06/05 12:52:48;;;;;;;9.93;3.30;;;25.60;68.90;;;;;;5135435;27;20916;-82
2022/06/05 12:55:19;;;;;;;3.50;3.20;;;25.60;68.50;;;;;;5135439;27;20454;-83
2022/06/05 12:57:54;;;;;;;3.07;2.87;;;25.60;68.30;;;;;;5134959;27;20470;-80
2022/06/05 13:00:30;;;;;;;3.80;3.43;;;25.60;68.40;;;;;;5134693;27;20446;-83
2022/06/05 13:03:03;;;;;;;5.90;3.33;;;25.60;68.80;;;;;;5129705;27;20524;-84
2022/06/05 13:05:36;;;;;;;3.60;3.30;;;25.60;69.00;;;;;;5132997;27;20444;-83
2022/06/05 13:08:09;;;;;;;4.63;3.40;;;25.70;68.80;;;;;;5136276;27;20471;-84
2022/06/05 13:10:40;;;;;;;3.90;3.50;;;25.60;68.50;;;;;;5135783;27;20469;-83
2022/06/05 13:13:19;;;;;;;5.60;4.00;;;25.70;69.10;;;;;;5135721;27;20488;-82
2022/06/05 13:15:52;;;;;;;8.00;3.63;;;25.70;68.80;;;;;;5134762;27;20430;-81
2022/06/05 13:18:26;;;;;;;3.60;3.30;;;25.70;68.80;;;;;;5131743;27;20522;-86
2022/06/05 13:21:10;;;;;;;3.50;3.20;;;25.70;68.70;;;;;;5115802;28;20886;-82
2022/06/05 13:23:49;;;;;;;3.47;3.23;;;25.80;68.70;;;;;;5115587;28;20447;-84
2022/06/05 13:26:26;;;;;;;3.80;3.40;;;25.70;68.60;;;;;;5119358;27;20550;-81
2022/06/05 13:29:02;;;;;;;3.40;3.20;;;25.80;68.40;;;;;;5133001;27;20975;-82